Arlington, TN (38002)

11:33 AM CDT on August 31, 2015 (GMT -0500)
Salem Road Ranches | | Change Station
CLOSE
Current Station
Personal Weather Station
Location: Lakeland, TN
Elevation: 400 ft
Nearby Weather Stations

Elev 400 ft 35.30 °N, 89.74 °W | Updated 2 seconds ago

Partly Cloudy
Partly Cloudy
79.4 °F
Feels Like 83 °F
N
0.0
Wind Variable Wind from WNW
Gusts 2.0 mph

Today
High -- | Low -- °F
--% Chance of Precip.
Yesterday
High -- | Low -- °F
Precip. -- in
6:30 AM 7:27 PM
Waning Gibbous, 95% visible
Pressure 30.11 in
Visibility 10.0 miles
Clouds Scattered Clouds 25000 ft
Heat Index 83 °F
Dew Point 74 °F
Humidity 84%
Rainfall 0.00 in
Snow Depth Not available.
UV 6 out of 12
Pollen 9.40 out of 12
Air Quality Not available.
Flu Activity Not available.
METAR KNQA 311550Z 16005KT 10SM SCT250 28/24 A3011
Pressure 30.11 in
Visibility 10.0 miles
Clouds Scattered Clouds 25000 ft
Heat Index 83 °F
Dew Point 74 °F
Humidity 84%
Rainfall 0.00 in
Snow Depth Not available.
UV 6 out of 12
Pollen 9.40 out of 12
Air Quality Not available.
Flu Activity Not available.
METAR KNQA 311550Z 16005KT 10SM SCT250 28/24 A3011

10-Day Weather Forecast

×

Almanac

Astronomy

Aug. 31, 2015 Rise Set
Actual Time
Civil Twilight
Nautical Twilight
Astronomical Twilight
Moon
Length of Visible Light
Length of Day
Tomorrow will be .
, % of the Moon is Illuminated

Today's Extremes

State Highs State Lows

Community

WunderPhotos

Upload Photos

1,851,302 photos uploaded!

WunderBlogs® & News

Nearby

Air Quality

  Air Quality AQ Index Pollutant
Not available.

Snow Depth

Station Depth Elevation

Earthquake Activity

City Distance Mag. Time & Date
Minimum magnitude displayed is 2.5.

Coastal Water Temperatures

Place Temperature

Stations

Nearby Weather Stations

Station Location Temp. Windchill Dew Point Humidity Wind Precip. Elev Updated Type